Aviation Digital Data Service (ADDS)

Output produced by TAFs form (0933 UTC 25 November 2017)
found at http://www.aviationweather.gov/adds/tafs/
 
METAR text: RJAH 250900Z 06001KT 9999 FEW030 BKN/// 07/01 Q1024
Conditions at: RJAH (HYAKURI (JASDF) , JP) observed 0900 UTC 25 November 2017
Temperature: 7.0°C (45°F)
Dewpoint: 1.0°C (34°F) [RH = 66%]
Pressure (altimeter): 30.24 inches Hg (1024.0 mb)
Winds: from the ENE (60 degrees) at 1 MPH (1 knots; 0.5 m/s)
Visibility: 6 or more miles (10+ km)
Ceiling: at least 12,000 feet AGL
Clouds: few clouds at 3000 feet AGL
Weather: no significant weather observed at this time

Forecast for: RJAH (HYAKURI (JASDF) , JP)
Text: TAF RJAH 250507Z 2506/2612 36005KT 9999 FEW030
Forecast period: 0600 to 1800 UTC 25 November 2017
Forecast type: FROM: standard forecast or significant change
Winds: from the N (360 degrees) at 6 MPH (5 knots; 2.6 m/s)
Visibility: 6 or more miles (10+ km)
Clouds: few clouds at 3000 feet AGL
Weather: no significant weather forecast for this period
Text: BECMG 2518/2521 23011KT
Forecast period: 1800 UTC 25 November 2017 to 1200 UTC 26 November 2017
Forecast type: BECOMING: Conditions expected to become as follows by 2100 UTC 25 November 2017
Winds: from the SW (230 degrees) at 13 MPH (11 knots; 5.7 m/s)
Visibility: 6 or more miles (10+ km)
Clouds: few clouds at 3000 feet AGL
Weather: no significant weather forecast for this period